createdAt,value
2023-01-11T00:03:59.494Z,10.32
2023-01-11T00:06:27.710Z,10.83
2023-01-11T00:09:01.173Z,11.20
2023-01-11T00:11:29.620Z,10.88
2023-01-11T00:13:57.247Z,10.80
2023-01-11T00:16:25.487Z,10.80
2023-01-11T00:20:09.389Z,10.60
2023-01-11T00:22:38.150Z,11.05
2023-01-11T00:25:06.389Z,10.82
2023-01-11T00:27:34.400Z,11.57
2023-01-11T00:30:02.099Z,11.18
2023-01-11T00:32:30.209Z,12.27
2023-01-11T00:39:39.878Z,10.73
2023-01-11T00:42:29.284Z,10.80
2023-01-11T00:48:56.941Z,11.73
2023-01-11T00:51:50.278Z,10.73
2023-01-11T00:54:17.936Z,11.95
2023-01-11T00:56:46.030Z,12.93
2023-01-11T00:59:14.194Z,12.60
2023-01-11T01:02:09.851Z,12.77
2023-01-11T01:04:38.268Z,13.27
2023-01-11T01:07:07.161Z,11.73
2023-01-11T01:09:34.948Z,11.50
2023-01-11T01:13:15.662Z,11.48
2023-01-11T01:15:43.340Z,11.52
2023-01-11T01:18:12.485Z,11.30
2023-01-11T01:20:41.465Z,11.90
2023-01-11T01:27:38.524Z,11.57
2023-01-11T01:35:22.274Z,10.48
2023-01-11T01:37:50.774Z,10.90
2023-01-11T01:45:44.820Z,11.43
2023-01-11T01:48:18.053Z,11.37
2023-01-11T01:50:53.763Z,10.27
2023-01-11T01:53:27.963Z,11.45
2023-01-11T01:57:41.727Z,10.18
2023-01-11T02:00:11.376Z,10.70
2023-01-11T02:02:41.488Z,11.57
2023-01-11T02:13:29.636Z,11.40
2023-01-11T02:16:09.728Z,12.40
2023-01-11T02:18:42.708Z,11.53
2023-01-11T02:21:25.132Z,11.45
2023-01-11T02:24:23.981Z,12.68
2023-01-11T02:32:18.800Z,11.95
2023-01-11T02:47:47.401Z,11.43
2023-01-11T02:54:25.207Z,11.70
2023-01-11T02:56:57.997Z,11.82
2023-01-11T02:59:32.027Z,12.10
2023-01-11T03:03:30.964Z,11.45
2023-01-11T03:32:15.685Z,10.13
2023-01-11T03:43:46.710Z,10.05
2023-01-11T03:46:21.220Z,11.18
2023-01-11T03:49:29.849Z,12.03
2023-01-11T03:52:00.780Z,11.00
2023-01-11T03:58:52.898Z,12.77
2023-01-11T05:14:30.739Z,16.83
2023-01-11T05:16:59.346Z,20.38
2023-01-11T05:19:27.563Z,18.25
2023-01-11T05:21:55.437Z,15.82
2023-01-11T05:24:23.882Z,18.20
2023-01-11T05:26:52.830Z,26.80
2023-01-11T05:34:09.772Z,15.77
2023-01-11T05:36:37.789Z,14.75
2023-01-11T05:39:06.984Z,14.88
2023-01-11T05:46:25.014Z,14.70
2023-01-11T05:48:55.664Z,18.73
2023-01-11T06:41:11.778Z,31.67
2023-01-11T06:44:32.047Z,35.47
2023-01-11T06:47:01.679Z,27.20
2023-01-11T06:49:29.826Z,34.15
2023-01-11T06:55:13.031Z,30.45
2023-01-11T06:57:43.198Z,29.27
2023-01-11T07:00:11.816Z,27.75
2023-01-11T07:02:40.475Z,24.75
2023-01-11T07:05:09.113Z,21.88
2023-01-11T07:07:38.858Z,30.05
2023-01-11T07:10:09.758Z,35.05
2023-01-11T07:12:42.701Z,24.80
2023-01-11T07:15:11.775Z,26.63
2023-01-11T07:17:40.052Z,26.17
2023-01-11T07:20:09.014Z,28.52
2023-01-11T07:22:37.911Z,26.08
2023-01-11T07:25:06.578Z,29.30
2023-01-11T07:27:34.885Z,26.02
2023-01-11T07:30:03.188Z,34.15
2023-01-11T07:32:31.492Z,28.83
2023-01-11T07:34:59.491Z,38.08
2023-01-11T07:37:29.628Z,48.13
2023-01-11T07:39:57.935Z,35.45
2023-01-11T07:46:34.622Z,31.83
2023-01-11T07:49:02.684Z,29.08
2023-01-11T07:51:31.225Z,37.65
2023-01-11T07:54:02.952Z,46.97
2023-01-11T07:56:32.739Z,41.53
2023-01-11T07:59:01.171Z,37.88
2023-01-11T08:01:29.785Z,31.80
2023-01-11T08:03:57.914Z,27.80
2023-01-11T08:06:26.669Z,34.15
2023-01-11T08:08:54.789Z,28.10
2023-01-11T08:11:43.053Z,26.38
2023-01-11T08:17:48.134Z,21.50
2023-01-11T08:20:16.631Z,19.13
2023-01-11T08:22:44.939Z,21.80
2023-01-11T08:25:13.479Z,22.27
2023-01-11T08:27:42.250Z,27.70
2023-01-11T08:30:11.204Z,63.67
2023-01-11T08:32:40.039Z,31.45
2023-01-11T08:35:08.484Z,26.85
2023-01-11T08:37:36.751Z,29.50
2023-01-11T08:40:05.811Z,20.17
2023-01-11T08:42:34.690Z,23.17
2023-01-11T08:45:03.211Z,21.30
2023-01-11T08:47:31.929Z,25.02
2023-01-11T08:50:00.508Z,26.58
2023-01-11T08:53:43.664Z,25.63
2023-01-11T08:56:11.536Z,26.75
2023-01-11T08:58:39.657Z,27.73
2023-01-11T09:01:10.662Z,89.35
2023-01-11T09:03:39.346Z,35.47
2023-01-11T09:06:09.004Z,41.90
2023-01-11T09:08:38.093Z,39.03
2023-01-11T09:11:26.899Z,30.50
2023-01-11T09:13:56.085Z,28.10
2023-01-11T09:16:24.958Z,38.63
2023-01-11T09:18:53.946Z,41.47
2023-01-11T09:21:22.621Z,31.23
2023-01-11T09:23:51.759Z,30.20
2023-01-11T09:26:21.545Z,27.92
2023-01-11T09:28:50.558Z,37.88
2023-01-11T09:36:06.682Z,27.67
2023-01-11T09:38:35.637Z,27.52
2023-01-11T09:41:24.816Z,27.67
2023-01-11T09:51:36.659Z,27.05
2023-01-11T09:54:08.741Z,26.63
2023-01-11T09:56:54.637Z,26.17
2023-01-11T09:59:36.116Z,25.92
2023-01-11T10:03:21.650Z,34.20
2023-01-11T10:06:29.728Z,32.15
2023-01-11T10:18:42.965Z,15.80
2023-01-11T10:19:48.611Z,19.67
2023-01-11T10:22:17.135Z,20.88
2023-01-11T10:28:56.143Z,26.83
2023-01-11T10:32:01.540Z,14.45
2023-01-11T10:35:00.189Z,27.90
2023-01-11T10:38:11.215Z,43.10
2023-01-11T10:41:37.633Z,18.40
2023-01-11T10:44:49.230Z,19.75
2023-01-11T10:47:30.191Z,22.90
2023-01-11T10:50:45.593Z,15.63
2023-01-11T10:53:33.225Z,15.68
2023-01-11T10:57:10.901Z,18.10
2023-01-11T11:07:22.060Z,13.93
2023-01-11T11:11:03.562Z,17.45
2023-01-11T11:13:39.767Z,24.90
2023-01-11T11:16:24.470Z,14.48
2023-01-11T11:18:59.076Z,15.05
2023-01-11T11:22:29.790Z,15.30
2023-01-11T11:29:23.528Z,11.43
2023-01-11T11:31:56.828Z,8.77
2023-01-11T11:35:22.001Z,8.10
2023-01-11T11:38:53.801Z,11.03
2023-01-11T11:41:25.643Z,8.02
2023-01-11T11:44:19.780Z,6.00
2023-01-11T11:47:07.442Z,6.40
2023-01-11T11:49:58.274Z,3.88
2023-01-11T11:52:38.283Z,10.17
2023-01-11T11:55:40.621Z,6.53
2023-01-11T11:58:16.117Z,6.13
2023-01-11T12:00:54.457Z,5.60
2023-01-11T12:03:33.992Z,5.18
2023-01-11T12:06:05.359Z,5.03
2023-01-11T12:08:39.271Z,3.60
2023-01-11T12:11:25.978Z,3.78
2023-01-11T12:14:20.577Z,3.00
2023-01-11T12:16:57.291Z,4.20
2023-01-11T12:20:00.662Z,4.70
2023-01-11T12:22:38.102Z,5.68
2023-01-11T12:29:38.542Z,8.95
2023-01-11T12:33:08.191Z,6.32
2023-01-11T12:39:43.676Z,7.18
2023-01-11T12:42:39.217Z,28.10
2023-01-11T12:49:26.355Z,3.55
2023-01-11T12:57:13.407Z,4.72
2023-01-11T13:08:32.488Z,7.95
2023-01-11T13:11:49.570Z,2.30
2023-01-11T13:14:43.463Z,2.53
2023-01-11T13:21:18.055Z,2.20
2023-01-11T13:24:17.699Z,2.25
2023-01-11T13:26:57.785Z,2.30
2023-01-11T13:29:33.028Z,1.90
2023-01-11T13:32:08.091Z,1.50
2023-01-11T13:39:43.210Z,2.45
2023-01-11T13:46:53.045Z,3.35
2023-01-11T13:56:59.163Z,1.92
2023-01-11T13:59:46.084Z,2.70
2023-01-11T14:02:41.725Z,1.60
2023-01-11T14:05:23.162Z,1.30
2023-01-11T14:08:12.741Z,2.20
2023-01-11T14:10:53.248Z,4.53
2023-01-11T14:14:11.371Z,1.90
2023-01-11T14:16:52.239Z,2.70
2023-01-11T14:19:29.227Z,4.15
2023-01-11T14:22:30.652Z,5.40
2023-01-11T14:25:01.910Z,6.43
2023-01-11T14:28:02.089Z,3.17
2023-01-11T14:31:10.645Z,3.63
2023-01-11T14:34:07.008Z,10.32
2023-01-11T14:36:59.971Z,2.42
2023-01-11T14:39:48.079Z,4.32
2023-01-11T14:42:32.069Z,4.03
2023-01-11T14:45:29.684Z,4.70
2023-01-11T14:48:49.500Z,4.20
2023-01-11T14:51:45.640Z,3.80
2023-01-11T14:54:13.987Z,3.67
2023-01-11T14:56:44.222Z,4.50
2023-01-11T14:59:30.710Z,4.43
2023-01-11T15:02:04.759Z,5.13
2023-01-11T15:05:04.743Z,4.93
2023-01-11T15:07:32.839Z,6.28
2023-01-11T15:10:04.930Z,5.70
2023-01-11T15:12:37.772Z,5.20
2023-01-11T15:15:47.785Z,7.85
2023-01-11T15:18:21.891Z,9.05
2023-01-11T15:21:05.064Z,12.10
2023-01-11T15:23:40.530Z,9.60
2023-01-11T15:26:13.289Z,9.80
2023-01-11T15:29:06.812Z,9.20
2023-01-11T15:32:09.662Z,7.47
2023-01-11T15:34:53.326Z,7.47
2023-01-11T15:37:30.914Z,5.90
2023-01-11T15:40:14.261Z,5.93
2023-01-11T15:43:15.242Z,6.10
2023-01-11T15:50:00.980Z,27.73
2023-01-11T15:52:53.070Z,6.10
2023-01-11T15:55:33.259Z,7.07
2023-01-11T15:58:31.228Z,22.27
2023-01-11T16:01:23.026Z,20.98
2023-01-11T16:04:03.501Z,22.77
2023-01-11T16:06:41.089Z,26.30
2023-01-11T16:09:47.432Z,28.98
2023-01-11T16:12:25.750Z,22.23
2023-01-11T16:15:10.163Z,20.02
2023-01-11T16:17:42.912Z,20.38
2023-01-11T16:20:20.890Z,20.10
2023-01-11T16:22:58.700Z,22.27
2023-01-11T16:25:34.730Z,24.20
2023-01-11T16:28:30.539Z,23.08
2023-01-11T16:31:05.712Z,20.83
2023-01-11T16:33:35.146Z,20.07
2023-01-11T16:36:21.603Z,18.77
2023-01-11T16:38:58.918Z,16.55
2023-01-11T16:41:32.850Z,17.55
2023-01-11T16:44:05.262Z,13.55
2023-01-11T16:47:11.568Z,18.50
2023-01-11T16:49:41.645Z,17.33
2023-01-11T16:52:28.879Z,13.27
2023-01-11T16:55:00.491Z,15.35
2023-01-11T16:57:36.684Z,14.88
2023-01-11T17:00:08.659Z,14.47
2023-01-11T17:02:39.729Z,14.23
2023-01-11T17:05:23.671Z,14.23
2023-01-11T17:07:51.665Z,12.02
2023-01-11T17:10:19.802Z,11.93
2023-01-11T17:13:34.765Z,11.03
2023-01-11T17:16:15.728Z,11.82
2023-01-11T17:18:44.948Z,12.80
2023-01-11T17:21:19.922Z,14.52
2023-01-11T17:23:50.275Z,13.35
2023-01-11T17:26:28.464Z,13.70
2023-01-11T17:28:58.544Z,13.77
2023-01-11T17:31:32.499Z,12.25
2023-01-11T17:34:08.938Z,11.55
2023-01-11T17:36:37.722Z,15.90
2023-01-11T17:39:06.453Z,20.60
2023-01-11T17:41:53.692Z,22.77
2023-01-11T17:44:42.687Z,16.90
2023-01-11T17:47:13.252Z,8.98
2023-01-11T17:49:41.227Z,10.30
2023-01-11T17:52:24.713Z,10.00
2023-01-11T17:55:19.621Z,8.98
2023-01-11T17:58:09.851Z,11.02
2023-01-11T18:00:38.179Z,12.73
2023-01-11T18:03:14.996Z,14.60
2023-01-11T18:05:43.544Z,15.10
2023-01-11T18:08:22.566Z,12.07
2023-01-11T18:10:56.577Z,15.77
2023-01-11T18:13:35.387Z,10.63
2023-01-11T18:16:04.723Z,7.88
2023-01-11T18:18:51.434Z,8.20
2023-01-11T18:22:01.021Z,8.95
2023-01-11T18:24:34.349Z,11.27
2023-01-11T18:27:08.092Z,10.43
2023-01-11T18:29:36.301Z,11.90
2023-01-11T18:32:05.267Z,14.57
2023-01-11T18:34:33.508Z,17.70
2023-01-11T18:37:03.224Z,17.58
2023-01-11T18:39:31.519Z,21.00
2023-01-11T18:42:09.565Z,18.02
2023-01-11T18:44:40.056Z,17.73
2023-01-11T18:47:15.669Z,18.35
2023-01-11T18:49:44.183Z,16.15
2023-01-11T18:52:12.339Z,11.48
2023-01-11T18:54:42.761Z,11.63
2023-01-11T18:57:10.913Z,11.60
2023-01-11T18:59:39.992Z,18.13
2023-01-11T19:02:16.730Z,14.40
2023-01-11T19:04:45.967Z,11.32
2023-01-11T19:07:15.572Z,10.90
2023-01-11T19:09:45.511Z,12.00
2023-01-11T19:12:14.031Z,13.65
2023-01-11T19:14:43.162Z,14.80
2023-01-11T19:17:12.014Z,20.17
2023-01-11T19:19:40.438Z,12.68
2023-01-11T19:22:08.832Z,13.60
2023-01-11T19:24:37.097Z,11.70
2023-01-11T19:27:05.099Z,10.13
2023-01-11T19:29:33.223Z,10.73
2023-01-11T19:32:01.138Z,11.60
2023-01-11T19:34:29.588Z,12.35
2023-01-11T19:36:57.457Z,17.20
2023-01-11T19:39:26.249Z,20.02
2023-01-11T19:41:55.056Z,22.23
2023-01-11T19:44:31.660Z,19.20
2023-01-11T19:47:10.765Z,19.77
2023-01-11T19:49:42.413Z,19.25
2023-01-11T19:52:19.247Z,18.77
2023-01-11T19:54:48.217Z,17.65
2023-01-11T19:57:20.813Z,18.52
2023-01-11T19:59:50.173Z,24.13
2023-01-11T20:02:22.024Z,25.60
2023-01-11T20:04:50.335Z,20.70
2023-01-11T20:07:18.427Z,16.90
2023-01-11T20:09:46.617Z,13.82
2023-01-11T20:12:16.473Z,14.20
2023-01-11T20:14:46.095Z,16.08
2023-01-11T20:17:14.546Z,17.08
2023-01-11T20:19:43.608Z,14.68
2023-01-11T20:22:11.468Z,16.65
2023-01-11T20:24:39.509Z,16.92
2023-01-11T20:27:07.151Z,14.55
2023-01-11T20:29:35.448Z,12.68
2023-01-11T20:32:27.827Z,10.82
2023-01-11T20:34:51.721Z,12.18
2023-01-11T20:37:19.571Z,11.88
2023-01-11T20:39:47.873Z,12.98
2023-01-11T20:42:15.685Z,34.97
2023-01-11T20:44:43.942Z,19.17
2023-01-11T20:47:11.787Z,16.17
2023-01-11T20:49:40.333Z,21.48
2023-01-11T20:52:08.170Z,15.32
2023-01-11T20:54:37.387Z,15.93
2023-01-11T20:57:08.609Z,17.95
2023-01-11T20:59:36.808Z,19.35
2023-01-11T21:02:04.618Z,23.25
2023-01-11T21:04:32.705Z,30.77
2023-01-11T21:07:00.719Z,25.92
2023-01-11T21:09:29.475Z,20.90
2023-01-11T21:11:57.227Z,20.90
2023-01-11T21:14:25.505Z,18.80
2023-01-11T21:16:55.573Z,16.23
2023-01-11T21:19:23.790Z,14.38
2023-01-11T21:21:51.724Z,11.68
2023-01-11T21:24:20.075Z,11.88
2023-01-11T21:26:48.723Z,11.48
2023-01-11T21:29:17.187Z,12.55
2023-01-11T21:31:44.960Z,13.60
2023-01-11T21:34:14.244Z,12.27
2023-01-11T21:36:43.664Z,34.08
2023-01-11T21:39:13.932Z,28.17
2023-01-11T21:41:58.612Z,17.17
2023-01-11T21:44:36.252Z,9.82
2023-01-11T21:47:06.530Z,8.35
2023-01-11T21:49:34.822Z,6.32
2023-01-11T21:52:09.862Z,11.57
2023-01-11T21:54:40.776Z,13.80
2023-01-11T21:57:08.608Z,17.73
2023-01-11T21:59:36.692Z,22.00
2023-01-11T22:02:04.683Z,22.30
2023-01-11T22:04:33.119Z,23.50
2023-01-11T22:07:01.040Z,20.73
2023-01-11T22:09:29.429Z,20.75
2023-01-11T22:11:57.249Z,21.58
2023-01-11T22:14:27.193Z,19.67
2023-01-11T22:16:55.229Z,10.57
2023-01-11T22:19:23.301Z,13.25
2023-01-11T22:21:51.184Z,17.10
2023-01-11T22:24:19.519Z,17.45
2023-01-11T22:26:47.586Z,15.00
2023-01-11T22:29:16.800Z,16.55
2023-01-11T22:31:53.243Z,16.20
2023-01-11T22:34:22.385Z,17.23
2023-01-11T22:36:50.215Z,18.13
2023-01-11T22:39:20.445Z,18.05
2023-01-11T22:41:49.296Z,16.98
2023-01-11T22:44:18.045Z,18.08
2023-01-11T22:46:46.178Z,17.92
2023-01-11T22:49:14.660Z,18.85
2023-01-11T22:51:43.551Z,21.05
2023-01-11T22:54:12.446Z,20.73
2023-01-11T22:56:40.464Z,20.45
2023-01-11T22:59:09.110Z,16.65
2023-01-11T23:01:41.716Z,17.27
2023-01-11T23:04:13.365Z,18.23
2023-01-11T23:06:42.534Z,16.63
2023-01-11T23:09:16.290Z,16.58
2023-01-11T23:12:23.443Z,16.42
2023-01-11T23:14:51.558Z,15.80
2023-01-11T23:17:19.790Z,15.85
2023-01-11T23:19:48.019Z,16.80
2023-01-11T23:22:21.604Z,25.15
2023-01-11T23:24:49.790Z,27.27
2023-01-11T23:27:17.606Z,19.65
2023-01-11T23:29:45.775Z,16.27
2023-01-11T23:32:13.656Z,17.70
2023-01-11T23:34:42.003Z,17.25
2023-01-11T23:37:10.009Z,18.42
2023-01-11T23:39:38.318Z,17.20
2023-01-11T23:46:25.002Z,14.32
2023-01-11T23:48:53.032Z,11.52
2023-01-11T23:51:20.750Z,13.80
2023-01-11T23:53:50.940Z,15.65
2023-01-11T23:56:18.595Z,15.00
2023-01-11T23:58:46.757Z,14.43
